createdAt,value
2024-02-21T00:01:09.421Z,27.85
2024-02-21T00:03:36.493Z,28.33
2024-02-21T00:06:03.547Z,28.00
2024-02-21T00:08:30.591Z,27.13
2024-02-21T00:10:57.682Z,26.13
2024-02-21T00:13:24.595Z,26.00
2024-02-21T00:15:51.481Z,26.13
2024-02-21T00:18:18.692Z,27.05
2024-02-21T00:20:45.796Z,29.30
2024-02-21T00:23:12.995Z,27.45
2024-02-21T00:25:40.078Z,26.58
2024-02-21T00:28:07.577Z,26.58
2024-02-21T00:30:34.435Z,27.42
2024-02-21T00:33:01.462Z,26.20
2024-02-21T00:35:28.474Z,27.15
2024-02-21T00:37:55.632Z,26.88
2024-02-21T00:40:23.418Z,27.77
2024-02-21T00:42:50.639Z,26.80
2024-02-21T00:45:17.533Z,28.02
2024-02-21T00:47:44.658Z,27.27
2024-02-21T00:50:11.733Z,27.40
2024-02-21T00:52:38.780Z,27.10
2024-02-21T00:55:06.335Z,27.13
2024-02-21T00:57:33.296Z,27.80
2024-02-21T01:00:00.326Z,25.92
2024-02-21T01:02:27.638Z,26.17
2024-02-21T01:04:54.859Z,26.42
2024-02-21T01:07:21.877Z,26.02
2024-02-21T01:09:48.812Z,26.08
2024-02-21T01:12:15.796Z,24.67
2024-02-21T01:14:42.810Z,27.10
2024-02-21T01:17:10.071Z,25.77
2024-02-21T01:19:36.966Z,26.23
2024-02-21T01:22:04.114Z,25.67
2024-02-21T01:24:31.327Z,25.85
2024-02-21T01:26:58.192Z,26.05
2024-02-21T01:29:25.132Z,25.17
2024-02-21T01:31:52.112Z,26.45
2024-02-21T01:34:19.112Z,25.70
2024-02-21T01:36:46.081Z,25.33
2024-02-21T01:39:13.290Z,24.88
2024-02-21T01:41:40.165Z,26.20
2024-02-21T01:44:07.084Z,24.65
2024-02-21T01:46:34.204Z,26.23
2024-02-21T01:49:01.865Z,25.08
2024-02-21T01:51:29.262Z,25.42
2024-02-21T01:53:57.562Z,25.98
2024-02-21T01:56:25.201Z,24.90
2024-02-21T01:58:53.174Z,25.02
2024-02-21T02:01:22.014Z,25.83
2024-02-21T02:03:50.662Z,24.10
2024-02-21T02:06:18.362Z,25.45
2024-02-21T02:08:45.819Z,25.17
2024-02-21T02:11:15.240Z,24.25
2024-02-21T02:13:42.176Z,23.92
2024-02-21T02:16:09.297Z,24.52
2024-02-21T02:18:36.843Z,25.00
2024-02-21T02:21:10.844Z,25.13
2024-02-21T02:23:37.741Z,24.67
2024-02-21T02:26:04.948Z,23.95
2024-02-21T02:28:31.973Z,23.08
2024-02-21T02:30:58.948Z,24.55
2024-02-21T02:33:25.995Z,24.08
2024-02-21T02:35:53.042Z,25.45
2024-02-21T02:38:19.914Z,23.40
2024-02-21T02:40:46.965Z,24.92
2024-02-21T02:43:14.056Z,24.30
2024-02-21T02:45:41.002Z,25.17
2024-02-21T02:48:08.507Z,24.98
2024-02-21T02:50:35.444Z,24.33
2024-02-21T02:53:02.469Z,25.67
2024-02-21T02:55:29.445Z,24.50
2024-02-21T02:57:57.198Z,25.10
2024-02-21T03:00:24.805Z,25.73
2024-02-21T03:02:51.842Z,26.52
2024-02-21T03:05:21.324Z,25.08
2024-02-21T03:07:50.152Z,24.83
2024-02-21T03:10:18.475Z,25.08
2024-02-21T03:12:46.176Z,25.42
2024-02-21T03:15:13.799Z,26.63
2024-02-21T03:17:41.476Z,25.25
2024-02-21T03:20:12.863Z,24.55
2024-02-21T03:22:41.531Z,24.63
2024-02-21T03:25:09.860Z,25.48
2024-02-21T03:27:36.796Z,24.90
2024-02-21T03:30:05.666Z,25.80
2024-02-21T03:32:33.019Z,26.23
2024-02-21T03:35:00.656Z,25.55
2024-02-21T03:37:28.036Z,25.40
2024-02-21T03:39:55.015Z,25.90
2024-02-21T03:42:21.967Z,25.20
2024-02-21T03:44:48.951Z,25.75
2024-02-21T03:47:15.864Z,24.98
2024-02-21T03:49:42.844Z,25.13
2024-02-21T03:52:10.207Z,25.08
2024-02-21T03:54:37.096Z,25.95
2024-02-21T03:57:04.218Z,26.35
2024-02-21T03:59:31.118Z,25.50
2024-02-21T04:01:58.288Z,26.52
2024-02-21T04:04:25.430Z,26.45
2024-02-21T04:06:52.937Z,26.50
2024-02-21T04:09:21.359Z,26.15
2024-02-21T04:11:48.336Z,26.10
2024-02-21T04:14:15.393Z,26.00
2024-02-21T04:16:42.335Z,27.02
2024-02-21T04:19:09.705Z,27.25
2024-02-21T04:21:37.258Z,26.20
2024-02-21T04:24:07.144Z,25.77
2024-02-21T04:26:34.938Z,25.20
2024-02-21T04:29:02.319Z,26.45
2024-02-21T04:31:29.449Z,26.02
2024-02-21T04:33:57.533Z,27.73
2024-02-21T04:36:25.277Z,27.58
2024-02-21T04:38:52.452Z,25.70
2024-02-21T04:41:19.412Z,27.10
2024-02-21T04:43:48.653Z,26.70
2024-02-21T04:46:16.738Z,27.17
2024-02-21T04:48:43.772Z,28.23
2024-02-21T04:51:12.671Z,28.02
2024-02-21T04:53:39.690Z,27.45
2024-02-21T04:56:07.067Z,26.60
2024-02-21T04:58:34.052Z,28.58
2024-02-21T05:01:01.059Z,26.52
2024-02-21T05:03:28.060Z,28.70
2024-02-21T05:05:55.288Z,27.52
2024-02-21T05:08:22.339Z,26.55
2024-02-21T05:10:49.345Z,27.50
2024-02-21T05:13:16.951Z,28.00
2024-02-21T05:15:44.049Z,27.60
2024-02-21T05:18:11.089Z,28.70
2024-02-21T05:20:38.173Z,27.23
2024-02-21T05:23:05.317Z,26.55
2024-02-21T05:25:32.394Z,28.30
2024-02-21T05:28:03.381Z,27.55
2024-02-21T05:30:30.916Z,26.83
2024-02-21T05:32:58.506Z,26.73
2024-02-21T05:35:30.287Z,27.23
2024-02-21T05:37:57.774Z,25.45
2024-02-21T05:40:25.363Z,25.27
2024-02-21T05:42:53.051Z,24.45
2024-02-21T05:45:20.242Z,26.10
2024-02-21T05:47:47.571Z,25.60
2024-02-21T05:50:14.800Z,25.42
2024-02-21T05:52:41.864Z,24.70
2024-02-21T05:55:10.247Z,25.65
2024-02-21T05:57:37.358Z,27.45
2024-02-21T06:00:08.079Z,26.95
2024-02-21T06:02:35.207Z,26.23
2024-02-21T06:05:02.488Z,26.73
2024-02-21T06:07:29.526Z,26.63
2024-02-21T06:09:56.711Z,26.02
2024-02-21T06:12:23.657Z,27.55
2024-02-21T06:14:50.910Z,27.48
2024-02-21T06:17:17.946Z,26.40
2024-02-21T06:19:46.490Z,27.15
2024-02-21T06:22:13.517Z,27.02
2024-02-21T06:24:40.611Z,27.48
2024-02-21T06:27:10.790Z,26.65
2024-02-21T06:29:38.330Z,27.83
2024-02-21T06:32:05.677Z,25.58
2024-02-21T06:34:34.930Z,25.40
2024-02-21T06:37:02.234Z,26.10
2024-02-21T06:39:30.702Z,25.40
2024-02-21T06:42:01.122Z,26.15
2024-02-21T06:44:30.792Z,24.67
2024-02-21T06:46:57.824Z,26.48
2024-02-21T06:49:25.071Z,25.90
2024-02-21T06:51:52.282Z,25.65
2024-02-21T06:54:19.348Z,25.67
2024-02-21T06:56:46.279Z,26.23
2024-02-21T06:59:16.850Z,25.17
2024-02-21T07:01:51.277Z,27.13
2024-02-21T07:04:18.337Z,26.63
2024-02-21T07:06:45.453Z,27.77
2024-02-21T07:09:12.432Z,27.48
2024-02-21T07:11:39.470Z,27.38
2024-02-21T07:14:06.455Z,26.67
2024-02-21T07:16:34.343Z,27.77
2024-02-21T07:19:01.892Z,26.63
2024-02-21T07:21:29.226Z,26.42
2024-02-21T07:23:56.144Z,26.55
2024-02-21T07:26:23.371Z,24.17
2024-02-21T07:28:50.619Z,25.83
2024-02-21T07:31:17.731Z,24.35
2024-02-21T07:33:44.836Z,24.58
2024-02-21T07:36:12.938Z,24.05
2024-02-21T07:38:40.419Z,26.08
2024-02-21T07:41:07.434Z,23.17
2024-02-21T07:43:34.542Z,22.98
2024-02-21T07:46:01.638Z,24.65
2024-02-21T07:48:28.539Z,23.77
2024-02-21T07:50:55.749Z,21.15
2024-02-21T07:53:22.967Z,21.10
2024-02-21T07:55:49.937Z,21.70
2024-02-21T07:58:17.079Z,21.02
2024-02-21T08:00:44.022Z,21.15
2024-02-21T08:03:11.018Z,20.60
2024-02-21T08:05:37.976Z,20.20
2024-02-21T08:08:05.692Z,19.05
2024-02-21T08:10:32.984Z,18.15
2024-02-21T08:12:59.893Z,18.33
2024-02-21T08:15:30.725Z,17.52
2024-02-21T08:18:00.986Z,17.25
2024-02-21T08:20:28.386Z,16.55
2024-02-21T08:22:55.410Z,15.07
2024-02-21T08:25:22.406Z,14.45
2024-02-21T08:27:49.329Z,14.43
2024-02-21T08:30:17.172Z,13.05
2024-02-21T08:32:44.415Z,12.85
2024-02-21T08:35:11.793Z,13.77
2024-02-21T08:37:38.907Z,13.18
2024-02-21T08:40:10.187Z,11.73
2024-02-21T08:42:39.903Z,11.10
2024-02-21T08:45:07.355Z,12.38
2024-02-21T08:47:34.278Z,11.32
2024-02-21T08:50:08.828Z,10.60
2024-02-21T08:52:42.720Z,11.73
2024-02-21T08:55:09.913Z,10.43
2024-02-21T08:57:37.925Z,10.77
2024-02-21T09:00:10.932Z,10.27
2024-02-21T09:02:41.320Z,10.63
2024-02-21T09:05:08.749Z,10.38
2024-02-21T09:07:35.837Z,8.68
2024-02-21T09:10:02.775Z,8.88
2024-02-21T09:12:30.494Z,8.85
2024-02-21T09:14:58.137Z,9.05
2024-02-21T09:17:26.393Z,8.52
2024-02-21T09:19:53.831Z,9.50
2024-02-21T09:22:20.866Z,8.60
2024-02-21T09:24:48.776Z,9.00
2024-02-21T09:27:15.760Z,8.40
2024-02-21T09:29:42.770Z,8.00
2024-02-21T09:32:09.859Z,8.60
2024-02-21T09:34:37.172Z,7.93
2024-02-21T09:37:04.846Z,7.38
2024-02-21T09:39:32.005Z,7.90
2024-02-21T09:42:04.944Z,7.20
2024-02-21T09:44:38.610Z,7.10
2024-02-21T09:47:11.246Z,6.70
2024-02-21T09:49:39.905Z,7.70
2024-02-21T09:52:08.070Z,7.32
2024-02-21T09:54:35.595Z,6.85
2024-02-21T09:57:04.334Z,7.00
2024-02-21T09:59:33.872Z,6.78
2024-02-21T10:02:02.039Z,6.45
2024-02-21T10:04:29.567Z,5.95
2024-02-21T10:06:56.726Z,5.65
2024-02-21T10:09:31.106Z,5.90
2024-02-21T10:12:11.048Z,5.65
2024-02-21T10:14:38.525Z,5.43
2024-02-21T10:17:11.133Z,6.18
2024-02-21T10:19:38.963Z,5.22
2024-02-21T10:22:09.285Z,5.88
2024-02-21T10:24:39.189Z,4.85
2024-02-21T10:27:12.906Z,4.78
2024-02-21T10:29:41.450Z,5.15
2024-02-21T10:32:14.171Z,4.38
2024-02-21T10:34:43.302Z,4.40
2024-02-21T10:37:11.856Z,4.85
2024-02-21T10:39:41.057Z,4.45
2024-02-21T10:42:09.167Z,4.20
2024-02-21T10:44:43.872Z,4.28
2024-02-21T10:49:41.806Z,4.05
2024-02-21T10:53:03.615Z,4.15
2024-02-21T10:55:42.143Z,4.10
2024-02-21T10:58:12.477Z,4.15
2024-02-21T11:00:40.026Z,3.95
2024-02-21T11:03:07.263Z,3.78
2024-02-21T11:05:35.226Z,4.00
2024-02-21T11:08:03.145Z,3.05
2024-02-21T11:10:30.206Z,3.65
2024-02-21T11:13:10.620Z,3.97
2024-02-21T11:15:37.660Z,3.63
2024-02-21T11:18:05.221Z,4.05
2024-02-21T11:20:40.083Z,3.90
2024-02-21T11:23:07.268Z,3.33
2024-02-21T11:25:35.739Z,3.80
2024-02-21T11:28:04.811Z,3.85
2024-02-21T11:30:36.410Z,3.70
2024-02-21T11:33:09.783Z,4.78
2024-02-21T11:35:37.941Z,4.20
2024-02-21T11:38:16.029Z,3.47
2024-02-21T11:40:48.601Z,4.20
2024-02-21T11:43:16.837Z,4.38
2024-02-21T11:45:43.769Z,4.63
2024-02-21T11:48:11.239Z,5.40
2024-02-21T11:50:40.586Z,4.50
2024-02-21T11:53:07.596Z,5.07
2024-02-21T11:55:35.665Z,5.97
2024-02-21T11:58:02.797Z,5.55
2024-02-21T12:00:29.726Z,6.25
2024-02-21T12:03:03.079Z,6.70
2024-02-21T12:05:30.495Z,6.93
2024-02-21T12:07:59.622Z,6.93
2024-02-21T12:10:30.009Z,6.53
2024-02-21T12:13:15.161Z,6.88
2024-02-21T12:15:42.515Z,7.40
2024-02-21T12:18:12.724Z,7.75
2024-02-21T12:20:40.806Z,7.05
2024-02-21T12:23:11.923Z,7.53
2024-02-21T12:25:41.120Z,7.85
2024-02-21T12:28:08.319Z,7.55
2024-02-21T12:30:36.501Z,8.43
2024-02-21T12:33:03.786Z,7.78
2024-02-21T12:35:32.721Z,8.70
2024-02-21T12:38:01.163Z,8.00
2024-02-21T12:40:33.732Z,8.38
2024-02-21T12:43:04.407Z,8.95
2024-02-21T12:45:31.483Z,8.35
2024-02-21T12:47:59.086Z,8.77
2024-02-21T12:50:26.146Z,8.57
2024-02-21T12:52:53.143Z,8.20
2024-02-21T12:55:21.520Z,7.78
2024-02-21T12:57:48.422Z,6.72
2024-02-21T13:00:15.733Z,8.27
2024-02-21T13:02:43.225Z,7.15
2024-02-21T13:05:10.367Z,7.32
2024-02-21T13:07:37.882Z,8.18
2024-02-21T13:10:06.597Z,7.57
2024-02-21T13:12:33.779Z,7.32
2024-02-21T13:15:00.674Z,7.57
2024-02-21T13:17:31.558Z,7.05
2024-02-21T13:19:59.131Z,7.00
2024-02-21T13:22:28.045Z,7.50
2024-02-21T13:24:58.131Z,7.13
2024-02-21T13:27:25.792Z,6.65
2024-02-21T13:29:54.226Z,6.65
2024-02-21T13:32:21.102Z,6.57
2024-02-21T13:34:48.414Z,6.32
2024-02-21T13:37:16.047Z,5.40
2024-02-21T13:39:42.857Z,5.65
2024-02-21T13:42:10.205Z,4.50
2024-02-21T13:44:38.564Z,4.63
2024-02-21T13:47:05.689Z,5.20
2024-02-21T13:49:32.801Z,4.57
2024-02-21T13:51:59.834Z,4.75
2024-02-21T13:54:27.048Z,4.47
2024-02-21T13:56:53.939Z,4.40
2024-02-21T13:59:20.939Z,4.32
2024-02-21T14:01:47.859Z,4.25
2024-02-21T14:04:15.122Z,4.90
2024-02-21T14:06:44.874Z,4.65
2024-02-21T14:09:12.320Z,4.15
2024-02-21T14:11:39.848Z,4.32
2024-02-21T14:14:07.726Z,5.43
2024-02-21T14:16:35.032Z,4.60
2024-02-21T14:19:03.135Z,4.93
2024-02-21T14:21:30.085Z,4.53
2024-02-21T14:23:57.964Z,5.03
2024-02-21T14:26:24.891Z,4.75
2024-02-21T14:28:51.914Z,5.03
2024-02-21T14:31:18.917Z,5.05
2024-02-21T14:33:47.500Z,4.60
2024-02-21T14:36:16.456Z,4.90
2024-02-21T14:38:44.301Z,5.18
2024-02-21T14:41:14.709Z,4.28
2024-02-21T14:43:41.762Z,4.55
2024-02-21T14:46:08.711Z,3.97
2024-02-21T14:48:35.764Z,5.00
2024-02-21T14:51:03.066Z,4.90
2024-02-21T14:53:31.789Z,4.22
2024-02-21T14:56:01.884Z,4.32
2024-02-21T14:58:29.224Z,4.68
2024-02-21T15:00:56.244Z,4.32
2024-02-21T15:03:23.280Z,3.95
2024-02-21T15:05:50.224Z,5.15
2024-02-21T15:08:19.502Z,3.58
2024-02-21T15:10:46.720Z,3.95
2024-02-21T15:13:13.825Z,3.65
2024-02-21T15:15:40.837Z,3.22
2024-02-21T15:18:08.417Z,3.15
2024-02-21T15:20:35.521Z,3.70
2024-02-21T15:23:06.356Z,3.20
2024-02-21T15:25:33.629Z,3.55
2024-02-21T15:28:05.860Z,6.10
2024-02-21T15:30:33.130Z,9.57
2024-02-21T15:33:04.379Z,12.45
2024-02-21T15:35:32.221Z,4.70
2024-02-21T15:38:02.597Z,3.70
2024-02-21T15:40:30.660Z,3.15
2024-02-21T15:42:58.009Z,2.95
2024-02-21T15:45:25.064Z,3.45
2024-02-21T15:47:52.272Z,3.85
2024-02-21T15:50:20.749Z,3.97
2024-02-21T15:52:47.758Z,3.05
2024-02-21T15:55:15.221Z,3.25
2024-02-21T15:57:42.079Z,3.45
2024-02-21T16:00:13.988Z,3.80
2024-02-21T16:02:44.877Z,3.70
2024-02-21T16:05:12.411Z,8.30
2024-02-21T16:07:39.980Z,5.40
2024-02-21T16:10:07.760Z,8.75
2024-02-21T16:12:35.406Z,4.32
2024-02-21T16:15:02.571Z,3.90
2024-02-21T16:17:29.715Z,3.30
2024-02-21T16:19:57.222Z,3.70
2024-02-21T16:22:24.344Z,4.30
2024-02-21T16:24:53.153Z,4.53
2024-02-21T16:27:21.434Z,4.43
2024-02-21T16:29:48.950Z,6.30
2024-02-21T16:32:16.292Z,6.60
2024-02-21T16:34:43.294Z,8.45
2024-02-21T16:37:10.191Z,12.75
2024-02-21T16:39:37.451Z,10.35
2024-02-21T16:42:05.345Z,8.77
2024-02-21T16:44:32.377Z,6.32
2024-02-21T16:46:59.473Z,5.72
2024-02-21T16:49:30.870Z,4.13
2024-02-21T16:51:59.767Z,7.22
2024-02-21T16:54:26.962Z,6.18
2024-02-21T16:56:54.482Z,4.82
2024-02-21T16:59:22.031Z,4.95
2024-02-21T17:01:52.626Z,6.28
2024-02-21T17:04:19.973Z,5.25
2024-02-21T17:06:48.046Z,7.70
2024-02-21T17:09:18.898Z,4.78
2024-02-21T17:11:46.316Z,4.05
2024-02-21T17:14:13.739Z,5.78
2024-02-21T17:16:40.792Z,5.13
2024-02-21T17:19:08.036Z,5.50
2024-02-21T17:21:35.865Z,4.63
2024-02-21T17:24:02.961Z,4.13
2024-02-21T17:26:30.029Z,4.70
2024-02-21T17:28:57.246Z,5.00
2024-02-21T17:31:24.316Z,4.60
2024-02-21T17:33:51.279Z,4.15
2024-02-21T17:36:18.411Z,3.75
2024-02-21T17:38:45.484Z,3.85
2024-02-21T17:41:12.700Z,3.83
2024-02-21T17:43:39.678Z,3.83
2024-02-21T17:46:08.192Z,4.25
2024-02-21T17:48:35.780Z,4.00
2024-02-21T17:51:02.857Z,3.80
2024-02-21T17:53:30.267Z,3.45
2024-02-21T17:55:58.130Z,4.68
2024-02-21T17:58:25.519Z,4.20
2024-02-21T18:00:55.072Z,4.80
2024-02-21T18:03:22.142Z,3.85
2024-02-21T18:05:49.765Z,4.28
2024-02-21T18:08:17.622Z,3.78
2024-02-21T18:10:44.908Z,3.22
2024-02-21T18:13:12.028Z,4.55
2024-02-21T18:15:39.324Z,4.57
2024-02-21T18:18:06.362Z,3.72
2024-02-21T18:20:33.777Z,3.67
2024-02-21T18:23:01.259Z,3.47
2024-02-21T18:25:28.517Z,4.28
2024-02-21T18:27:56.352Z,4.40
2024-02-21T18:30:25.555Z,4.13
2024-02-21T18:32:52.934Z,3.53
2024-02-21T18:35:20.328Z,3.22
2024-02-21T18:37:47.792Z,3.90
2024-02-21T18:40:16.947Z,3.47
2024-02-21T18:42:44.355Z,3.65
2024-02-21T18:45:11.818Z,3.22
2024-02-21T18:47:39.356Z,5.10
2024-02-21T18:50:07.393Z,3.13
2024-02-21T18:52:34.908Z,3.03
2024-02-21T18:55:03.139Z,3.30
2024-02-21T18:57:32.665Z,2.78
2024-02-21T19:00:00.071Z,2.72
2024-02-21T19:02:27.255Z,2.30
2024-02-21T19:04:54.648Z,3.95
2024-02-21T19:07:24.568Z,4.03
2024-02-21T19:10:08.541Z,3.28
2024-02-21T19:12:37.888Z,2.70
2024-02-21T19:15:06.361Z,2.92
2024-02-21T19:17:45.581Z,2.90
2024-02-21T19:20:13.504Z,3.00
2024-02-21T19:22:42.737Z,2.13
2024-02-21T19:25:14.562Z,2.63
2024-02-21T19:27:42.000Z,2.90
2024-02-21T19:30:11.989Z,2.15
2024-02-21T19:32:39.448Z,2.22
2024-02-21T19:35:07.294Z,2.50
2024-02-21T19:37:35.349Z,3.00
2024-02-21T19:40:04.981Z,2.75
2024-02-21T19:42:33.669Z,2.40
2024-02-21T19:45:00.887Z,2.20
2024-02-21T19:47:28.976Z,2.40
2024-02-21T19:53:13.969Z,2.13
2024-02-21T19:55:51.589Z,2.20
2024-02-21T20:01:40.693Z,2.22
2024-02-21T20:04:27.246Z,2.40
2024-02-21T20:07:14.817Z,2.30
2024-02-21T20:09:51.030Z,2.85
2024-02-21T20:12:29.102Z,2.75
2024-02-21T20:15:12.704Z,2.17
2024-02-21T20:17:43.567Z,2.65
2024-02-21T20:20:19.522Z,2.50
2024-02-21T20:22:49.048Z,2.78
2024-02-21T20:25:22.184Z,2.65
2024-02-21T20:27:49.355Z,3.28
2024-02-21T20:30:17.052Z,3.42
2024-02-21T20:32:45.038Z,2.65
2024-02-21T20:35:12.800Z,3.75
2024-02-21T20:37:39.898Z,3.05
2024-02-21T20:40:10.193Z,3.25
2024-02-21T20:42:37.270Z,3.05
2024-02-21T20:45:06.156Z,3.90
2024-02-21T20:47:33.211Z,3.35
2024-02-21T20:50:00.534Z,3.88
2024-02-21T20:52:28.162Z,3.08
2024-02-21T20:54:55.152Z,3.63
2024-02-21T20:57:22.810Z,3.05
2024-02-21T20:59:50.298Z,3.58
2024-02-21T21:02:17.648Z,3.35
2024-02-21T21:04:44.946Z,3.70
2024-02-21T21:07:12.191Z,3.47
2024-02-21T21:09:40.550Z,3.40
2024-02-21T21:12:08.291Z,3.30
2024-02-21T21:14:35.797Z,3.80
2024-02-21T21:17:05.224Z,2.90
2024-02-21T21:19:32.901Z,3.10
2024-02-21T21:22:01.871Z,2.70
2024-02-21T21:24:30.388Z,3.50
2024-02-21T21:26:57.701Z,3.47
2024-02-21T21:29:25.031Z,3.30
2024-02-21T21:31:52.647Z,3.67
2024-02-21T21:34:19.967Z,2.83
2024-02-21T21:36:47.386Z,2.78
2024-02-21T21:39:17.761Z,3.72
2024-02-21T21:41:45.332Z,2.90
2024-02-21T21:44:12.887Z,2.35
2024-02-21T21:46:42.215Z,2.42
2024-02-21T21:49:09.609Z,2.80
2024-02-21T21:51:36.614Z,2.50
2024-02-21T21:54:05.399Z,2.40
2024-02-21T21:56:32.674Z,2.83
2024-02-21T21:58:59.923Z,2.60
2024-02-21T22:01:30.387Z,3.20
2024-02-21T22:03:57.641Z,2.92
2024-02-21T22:06:24.746Z,2.97
2024-02-21T22:08:53.360Z,3.30
2024-02-21T22:11:20.625Z,2.83
2024-02-21T22:13:48.147Z,2.88
2024-02-21T22:16:15.202Z,2.85
2024-02-21T22:18:43.506Z,3.10
2024-02-21T22:21:10.757Z,2.97
2024-02-21T22:23:40.331Z,3.10
2024-02-21T22:26:08.163Z,3.13
2024-02-21T22:28:35.283Z,2.97
2024-02-21T22:31:02.486Z,2.70
2024-02-21T22:33:29.991Z,3.30
2024-02-21T22:35:57.051Z,3.17
2024-02-21T22:38:24.263Z,3.15
2024-02-21T22:40:51.124Z,2.90
2024-02-21T22:43:18.504Z,2.90
2024-02-21T22:45:48.421Z,2.80
2024-02-21T22:48:15.618Z,2.70
2024-02-21T22:50:44.185Z,2.80
2024-02-21T22:53:11.685Z,3.00
2024-02-21T22:55:38.714Z,3.03
2024-02-21T22:58:05.595Z,2.95
2024-02-21T23:00:32.699Z,3.17
2024-02-21T23:02:59.938Z,3.25
2024-02-21T23:05:27.049Z,3.50
2024-02-21T23:07:54.334Z,3.13
2024-02-21T23:10:24.947Z,3.65
2024-02-21T23:12:52.510Z,4.03
2024-02-21T23:15:19.551Z,3.17
2024-02-21T23:17:46.580Z,3.50
2024-02-21T23:20:13.793Z,3.15
2024-02-21T23:22:40.734Z,2.60
2024-02-21T23:25:14.061Z,3.47
2024-02-21T23:27:42.124Z,3.13
2024-02-21T23:30:12.741Z,3.00
2024-02-21T23:32:40.135Z,3.40
2024-02-21T23:35:08.663Z,3.25
2024-02-21T23:37:36.047Z,2.78
2024-02-21T23:40:04.219Z,3.00
2024-02-21T23:42:31.204Z,3.40
2024-02-21T23:44:59.196Z,3.70
2024-02-21T23:47:26.179Z,3.20
2024-02-21T23:49:53.181Z,3.22
2024-02-21T23:52:20.294Z,3.33
2024-02-21T23:54:47.291Z,3.55
2024-02-21T23:57:17.220Z,3.40
2024-02-21T23:59:45.522Z,3.67
